Pearces, Michigan
Current Conditions -  °F | °C
As of 5:35 AM on Friday 31 Oct 2014 (Local Time) from KOZW Reporting Station
Light Rain Light Rain  
Wind Chill:   Ceiling: 6000
Heat Index:   Visibility: 10mi
Dew Point:   Wind: 3mph
Humidity: 80%   Direction: 210°SSW
Pressure: 29.9"   Gusts: NA
Location:  42.7°N, 83.9305°W
Report Text: KOZW 310935Z AUTO 21003KT 10SM -RA OVC060 06/03 A2990 RMK AO2 T00570025
Loading
Personal Weather Stations






























Interactive Weather Map
Tropical Storm Tracking
New forecast layout! Learn more

10-Day Weather Forecast

Advertisements
Track Severe Weather on mobile